Terminal Aerodrome Forecast
Issued by NWS

Home | Current Version | Previous Version | Text Only | Print | Product List | Glossary On
Versions: 1 2 3 4 5 6 7 8 9 10 11 12 13 14 15 16 17 18 19 20 21 22 23 24 25 26
000
FTUS44 KLZK 211720
TAFADF
TAF
KADF 211720Z 2118/2218 20008KT P6SM BKN030
      TEMPO 2118/2122 BKN015
     FM212200 24006KT P6SM SCT050 BKN250
     FM220300 34008KT P6SM SKC
     FM221000 03005KT P6SM SKC=

USA.gov is the U.S. government's official web portal to all federal, state and local government web resources and services.